Lexington, Indiana
Current Conditions -  °F | °C
As of 9:12 AM on Sunday 25 Jan 2015 (Local Time) from KIMS Reporting Station
Scattered Clouds Scattered Clouds  
Wind Chill: 33°   Ceiling: Unl
Heat Index: 37°   Visibility: 10mi
Dew Point: 30°   Wind: 6mph
Humidity: 75%   Direction: 160°SSE
Pressure: 29.72"   Gusts: NA
Location:  38.65°N, 85.63°W
Report Text: KIMS 251412Z AUTO 16005KT 10SM SCT075 SCT120 03/M01 A2972 RMK AO1
Loading
Personal Weather Stations






























Interactive Weather Map New forecast layout! Learn more

10-Day Weather Forecast

Advertisements
Track Severe Weather on mobile